Local and Regional Airport Weather



KPVE - Beech River Regional Airport
Distance from station: NW 4mi, 6km
Updated: Wed, Dec-12-2018 12:55pm CST
Overcast
Overcast
 Wind from SSW
Wind: SSW 12 mph , 19 km/h
Temperature: 52°F , 11°C
Dew Point: 34°F , 1°C
Humidity: 50%
Barometer: 30.05 inHg , 1017.6 hPa
Clouds: Overcast
Visibility: 10 miles , 16 km
Cloud details: Mostly cloudy 3500 ft
Mostly cloudy 4300 ft
Overcast 7000 ft
2018/12/12 18:55 KPVE 121855Z AUTO 21010KT 10SM BKN035 BKN043 OVC070 11/01 A3005 RMK A01
KSNH - Savannah Hardin Co. Airport
Distance from station: S 34mi, 54km
Updated: Wed, Dec-12-2018 12:55pm CST
Overcast
Overcast
 Wind from SSW
Wind: SSW 10 mph , 17 km/h
Temperature: 50°F , 10°C
Wind Chill: 46°F , 8°C
Dew Point: 32°F , 0°C
Humidity: 50%
Barometer: 30.07 inHg , 1018.3 hPa
Clouds: Overcast
Visibility: 10 miles , 16 km
Cloud details: Mostly cloudy 3900 ft
Overcast 6000 ft
2018/12/12 18:55 KSNH 121855Z AUTO 20009KT 10SM BKN039 OVC060 10/00 A3007 RMK A01
 
KMKL - McKellar-Sipes Regional Airport
Distance from station: W 44mi, 72km
Updated: Wed, Dec-12-2018 12:53pm CST
Overcast
Overcast
 Wind from SSW
Wind: SSW 9 mph , 15 km/h
Temperature: 52°F , 11°C
Dew Point: 34°F , 1°C
Humidity: 50%
Barometer: 30.04 inHg , 1017.3 hPa
Clouds: Overcast
Visibility: 10 miles , 16 km
Cloud details: Few Clouds 3800 ft
Overcast 7000 ft
2018/12/12 18:53 KMKL 121853Z 20008KT 10SM FEW038 OVC070 11/01 A3004 RMK AO2 SLP175 T01110006
KMSL - NW Alabama Regional Airport
Distance from station: SE 78mi, 126km
Updated: Wed, Dec-12-2018 12:53pm CST
Mostly cloudy
Mostly cloudy
 Wind from SW
Wind: SW 8 mph , 13 km/h
Temperature: 54°F , 12°C
Dew Point: 28°F , -2°C
Humidity: 38%
Barometer: 30.12 inHg , 1020 hPa
Clouds: Mostly cloudy
Visibility: 10 miles , 16 km
Cloud details: Mostly cloudy 3900 ft
Mostly cloudy 4900 ft
2018/12/12 18:53 KMSL 121853Z AUTO 22007KT 10SM BKN039 BKN049 12/M02 A3012 RMK AO2 SLP202 T01221017 $
 
KBNA - Nashville International Airport
Distance from station: NE 97mi, 157km
Updated: Wed, Dec-12-2018 12:53pm CST
Overcast
Overcast
 Wind from SW
Wind: SW 10 mph , 17 km/h
Temperature: 52°F , 11°C
Dew Point: 30°F , -1°C
Humidity: 44%
Barometer: 30.06 inHg , 1017.9 hPa
Clouds: Overcast
Visibility: 10 miles , 16 km
Cloud details: Partly cloudy 3500 ft
Mostly cloudy 5500 ft
Overcast 20000 ft
2018/12/12 18:53 KBNA 121853Z 22009KT 10SM SCT035 BKN055 OVC200 11/M01 A3006 RMK AO2 SLP182 T01111011
KMEM - Memphis International Airport
Distance from station: W 108mi, 173km
Updated: Wed, Dec-12-2018 12:54pm CST
Overcast
Overcast
 Wind from SSW
Wind: SSW 14 mph , 22 km/h, Gust: 22 mph , 35 km/h
Temperature: 52°F , 11°C
Dew Point: 28°F , -2°C
Humidity: 41%
Barometer: 30.05 inHg , 1017.6 hPa
Clouds: Overcast
Visibility: 10 miles , 16 km
Cloud details: Mostly cloudy 4000 ft
Mostly cloudy 5500 ft
Overcast 7000 ft
2018/12/12 18:54 KMEM 121854Z 21012G19KT 10SM BKN040 BKN055 OVC070 11/M02 A3005 RMK AO2 SLP176 T01061022
 
KTYS - Knoxville McGhee Tyson Airport
Distance from station: E 234mi, 377km
Updated: Wed, Dec-12-2018 12:53pm CST
Overcast
Overcast
 Wind from SW
Wind: SW 15 mph , 24 km/h
Temperature: 48°F , 9°C
Wind Chill: 42°F , 6°C
Dew Point: 28°F , -2°C
Humidity: 46%
Barometer: 30.12 inHg , 1020 hPa
Clouds: Overcast
Visibility: 10 miles , 16 km
Cloud details: Few Clouds 17000 ft
Overcast 20000 ft
2018/12/12 18:53 KTYS 121853Z 23013KT 10SM FEW170 OVC200 09/M02 A3012 RMK AO2 SLP202 T00891017
KSTL - St. Louis International Airport
Distance from station: NW 247mi, 398km
Updated: Wed, Dec-12-2018 12:51pm CST
Clear
Clear
 Wind from WSW
Wind: WSW 12 mph , 19 km/h
Temperature: 52°F , 11°C
Dew Point: 25°F , -4°C
Humidity: 35%
Barometer: 29.89 inHg , 1012.2 hPa
Clouds: Clear
Visibility: 10 miles , 16 km
2018/12/12 18:51 KSTL 121851Z 25010KT 10SM CLR 11/M04 A2989 RMK AO2 SLP124 T01111044

Refresh Page for latest data.